Time;durP1;ratioP1;P1;durP2;ratioP2;P2;SDS_P1;SDS_P2;PMS_P1;PMS_P2;Temp;Humidity;BMP_temperature;BMP_pressure;BME280_temperature;BME280_humidity;BME280_pressure;Samples;Min_cycle;Max_cycle;Signal;HPM_P1;HPM_P2
2021/10/30 00:00:06;;;;;;;4.35;1.30;;;9.30;99.90;;;;;;4443642;32;20116;-69
2021/10/30 00:02:32;;;;;;;1.02;0.88;;;9.30;99.90;;;;;;4443428;32;20069;-69
2021/10/30 00:04:57;;;;;;;10.07;1.20;;;9.30;99.90;;;;;;4443175;32;20065;-69
2021/10/30 00:07:23;;;;;;;2.37;1.67;;;9.30;99.90;;;;;;4438920;32;20646;-70
2021/10/30 00:09:48;;;;;;;1.75;1.42;;;9.30;99.90;;;;;;4443362;32;20084;-70
2021/10/30 00:12:14;;;;;;;1.30;1.20;;;9.30;99.90;;;;;;4443105;32;20127;-70
2021/10/30 00:14:39;;;;;;;3.03;1.67;;;9.30;99.90;;;;;;4442341;32;20553;-70
2021/10/30 00:17:05;;;;;;;2.20;1.67;;;9.20;99.90;;;;;;4443238;32;20069;-69
2021/10/30 00:19:31;;;;;;;4.45;2.35;;;9.10;99.90;;;;;;4442701;32;21413;-69
2021/10/30 00:21:56;;;;;;;4.05;1.85;;;9.20;99.90;;;;;;4443022;32;20064;-69
2021/10/30 00:24:22;;;;;;;7.47;2.28;;;9.20;99.90;;;;;;4443688;32;20061;-69
2021/10/30 00:26:48;;;;;;;4.00;2.00;;;9.20;99.90;;;;;;4442911;32;20073;-70
2021/10/30 00:29:14;;;;;;;3.53;1.67;;;9.20;99.90;;;;;;4443435;32;20527;-68
2021/10/30 00:31:39;;;;;;;1.50;1.40;;;9.20;99.90;;;;;;4442864;32;20069;-68
2021/10/30 00:34:05;;;;;;;4.57;2.58;;;9.20;99.90;;;;;;4436084;32;20519;-69
2021/10/30 00:36:30;;;;;;;2.22;1.85;;;9.30;99.90;;;;;;4443496;32;20073;-69
2021/10/30 00:38:56;;;;;;;2.00;1.55;;;9.20;99.90;;;;;;4444249;32;20081;-69
2021/10/30 00:41:21;;;;;;;1.95;1.52;;;9.20;99.90;;;;;;4443654;32;20069;-70
2021/10/30 00:43:48;;;;;;;5.35;2.28;;;9.30;99.90;;;;;;4443139;32;20073;-70
2021/10/30 00:46:15;;;;;;;1.98;1.50;;;9.40;99.90;;;;;;4442865;32;20119;-69
2021/10/30 00:48:41;;;;;;;2.53;1.15;;;9.40;99.90;;;;;;4442979;32;20124;-69
2021/10/30 00:51:07;;;;;;;1.05;1.00;;;9.40;99.90;;;;;;4441838;32;20513;-69
2021/10/30 00:53:33;;;;;;;5.35;1.83;;;9.40;99.90;;;;;;4443267;32;20072;-69
2021/10/30 00:56:02;;;;;;;4.95;2.25;;;9.30;99.90;;;;;;4442994;32;20086;-69
2021/10/30 00:58:30;;;;;;;4.72;1.80;;;9.30;99.90;;;;;;4442234;32;20081;-70
2021/10/30 01:00:57;;;;;;;4.47;2.00;;;9.30;99.90;;;;;;4442736;32;20136;-69
2021/10/30 01:03:22;;;;;;;4.32;1.37;;;9.30;99.90;;;;;;4443034;32;20070;-69
2021/10/30 01:05:48;;;;;;;1.42;1.33;;;9.40;99.90;;;;;;4442647;32;20423;-69
2021/10/30 01:08:14;;;;;;;3.58;1.55;;;9.40;99.90;;;;;;4442647;32;20064;-69
2021/10/30 01:10:40;;;;;;;4.97;2.10;;;9.40;99.90;;;;;;4442881;32;20073;-69
2021/10/30 01:13:06;;;;;;;2.05;1.27;;;9.40;99.90;;;;;;4443629;32;20502;-69
2021/10/30 01:15:31;;;;;;;1.10;1.02;;;9.40;99.90;;;;;;4443278;32;20060;-69
2021/10/30 01:17:57;;;;;;;9.32;2.55;;;9.40;99.90;;;;;;4442713;32;20530;-69
2021/10/30 01:20:26;;;;;;;19.48;1.92;;;9.40;99.90;;;;;;4442793;32;20073;-70
2021/10/30 01:22:55;;;;;;;1.55;1.12;;;9.50;99.90;;;;;;4443717;32;20096;-69
2021/10/30 01:25:23;;;;;;;1.25;1.15;;;9.50;99.90;;;;;;4444047;32;20084;-69
2021/10/30 01:27:49;;;;;;;1.77;1.30;;;9.40;99.90;;;;;;4444601;32;20058;-68
2021/10/30 01:30:16;;;;;;;4.47;2.17;;;9.40;99.90;;;;;;4445366;32;20560;-69
2021/10/30 01:32:52;;;;;;;3.83;1.80;;;9.40;99.90;;;;;;4444888;32;20068;-69
2021/10/30 01:35:28;;;;;;;2.75;1.05;;;9.40;99.90;;;;;;4445503;32;20097;-69
2021/10/30 01:37:55;;;;;;;8.45;2.08;;;9.40;99.90;;;;;;4445019;32;20461;-70
2021/10/30 01:40:21;;;;;;;1.00;1.00;;;9.40;99.90;;;;;;4445967;32;20069;-69
2021/10/30 01:42:53;;;;;;;9.38;1.08;;;9.20;99.90;;;;;;4445266;32;20517;-69
2021/10/30 01:45:18;;;;;;;2.92;1.33;;;9.20;99.90;;;;;;4444800;32;20127;-70
2021/10/30 01:47:44;;;;;;;4.25;1.85;;;9.20;99.90;;;;;;4445530;32;20061;-70
2021/10/30 01:50:14;;;;;;;2.67;1.60;;;9.10;99.90;;;;;;4445323;32;20607;-70
2021/10/30 01:52:40;;;;;;;2.75;1.40;;;9.20;99.90;;;;;;4445471;32;20061;-70
2021/10/30 01:55:09;;;;;;;10.57;2.92;;;9.20;99.90;;;;;;4444875;32;20082;-69
2021/10/30 01:57:35;;;;;;;2.40;1.50;;;9.20;99.90;;;;;;4443801;32;20080;-69
2021/10/30 02:00:00;;;;;;;8.75;1.73;;;9.30;99.90;;;;;;4444949;32;20168;-70
2021/10/30 02:02:26;;;;;;;2.72;1.73;;;9.30;99.90;;;;;;4444537;32;20074;-68
2021/10/30 02:04:51;;;;;;;7.50;1.95;;;9.10;99.90;;;;;;4445107;32;20090;-68
2021/10/30 02:07:17;;;;;;;6.35;1.80;;;9.10;99.90;;;;;;4444511;32;20093;-69
2021/10/30 02:09:42;;;;;;;25.98;1.52;;;9.00;99.90;;;;;;4444966;32;20074;-69
2021/10/30 02:12:08;;;;;;;7.10;2.60;;;9.10;99.90;;;;;;4444140;32;20089;-69
2021/10/30 02:14:33;;;;;;;2.75;1.77;;;9.10;99.90;;;;;;4446504;32;20061;-68
2021/10/30 02:16:59;;;;;;;1.77;1.23;;;9.10;99.90;;;;;;4445349;32;20501;-68
2021/10/30 02:19:24;;;;;;;6.72;1.73;;;9.20;99.90;;;;;;4444326;32;20053;-69
2021/10/30 02:21:50;;;;;;;2.37;1.58;;;9.20;99.90;;;;;;4445174;32;20208;-69
2021/10/30 02:24:15;;;;;;;1.73;1.40;;;9.20;99.90;;;;;;4444797;32;20082;-69
2021/10/30 02:26:41;;;;;;;1.48;1.05;;;9.30;99.90;;;;;;4445417;32;20077;-69
2021/10/30 02:29:06;;;;;;;5.35;1.52;;;9.30;99.90;;;;;;4444591;32;20077;-69
2021/10/30 02:31:32;;;;;;;3.22;1.50;;;9.30;99.90;;;;;;4445325;32;20514;-69
2021/10/30 02:33:57;;;;;;;1.00;0.90;;;9.30;99.90;;;;;;4431097;32;20065;-69
2021/10/30 02:36:23;;;;;;;2.25;1.55;;;9.20;99.90;;;;;;4429697;32;20065;-69
2021/10/30 02:38:49;;;;;;;1.65;1.27;;;9.00;99.90;;;;;;4443494;32;20157;-69
2021/10/30 02:41:14;;;;;;;1.25;1.15;;;9.00;99.90;;;;;;4444761;32;20522;-69
2021/10/30 02:43:40;;;;;;;3.53;2.12;;;9.00;99.90;;;;;;4444961;32;20057;-69
2021/10/30 02:46:05;;;;;;;1.70;1.37;;;9.10;99.90;;;;;;4445102;32;20077;-69
2021/10/30 02:48:30;;;;;;;5.28;1.67;;;9.10;99.90;;;;;;4444873;32;20069;-69
2021/10/30 02:50:56;;;;;;;5.45;1.98;;;9.20;99.90;;;;;;4445027;32;20062;-69
2021/10/30 02:53:21;;;;;;;1.15;1.10;;;9.00;99.90;;;;;;4445155;32;20476;-69
2021/10/30 02:55:47;;;;;;;1.17;0.90;;;8.90;99.90;;;;;;4445899;32;20073;-69
2021/10/30 02:58:12;;;;;;;9.55;3.03;;;8.90;99.90;;;;;;4444531;32;20342;-69
2021/10/30 03:00:38;;;;;;;2.08;1.85;;;8.90;99.90;;;;;;4446011;32;20076;-70
2021/10/30 03:03:04;;;;;;;1.67;1.37;;;9.00;99.90;;;;;;4444930;32;20061;-70
2021/10/30 03:05:30;;;;;;;2.95;1.70;;;8.90;99.90;;;;;;4445080;32;20428;-70
2021/10/30 03:07:55;;;;;;;1.87;1.45;;;8.80;99.90;;;;;;4444714;32;20065;-69
2021/10/30 03:10:21;;;;;;;16.27;1.80;;;8.80;99.90;;;;;;4445466;32;20061;-69
2021/10/30 03:12:48;;;;;;;3.53;1.73;;;8.80;99.90;;;;;;4444950;32;20120;-69
2021/10/30 03:15:15;;;;;;;1.62;1.52;;;8.90;99.90;;;;;;4444326;32;20069;-69
2021/10/30 03:17:40;;;;;;;1.50;1.40;;;9.00;99.90;;;;;;4444751;32;20077;-69
2021/10/30 03:20:07;;;;;;;3.50;1.33;;;9.00;99.90;;;;;;4444379;32;20081;-69
2021/10/30 03:22:33;;;;;;;2.35;2.10;;;9.00;99.90;;;;;;4444938;32;20443;-69
2021/10/30 03:24:59;;;;;;;4.07;2.60;;;9.10;99.90;;;;;;4444446;32;20069;-68
2021/10/30 03:27:24;;;;;;;2.17;1.30;;;9.00;99.90;;;;;;4445023;32;20065;-69
2021/10/30 03:29:50;;;;;;;3.20;1.83;;;9.00;99.90;;;;;;4445452;32;20069;-69
2021/10/30 03:32:15;;;;;;;2.10;1.73;;;9.00;99.90;;;;;;4444262;32;20073;-68
2021/10/30 03:34:41;;;;;;;2.15;1.40;;;8.90;99.90;;;;;;4444351;32;20145;-69
2021/10/30 03:37:06;;;;;;;1.37;1.27;;;8.60;99.90;;;;;;4445597;32;20061;-69
2021/10/30 03:39:32;;;;;;;1.92;1.30;;;8.50;99.90;;;;;;4444534;32;20519;-72
2021/10/30 03:41:58;;;;;;;1.20;1.05;;;8.40;99.90;;;;;;4444176;32;20116;-68
2021/10/30 03:44:23;;;;;;;3.35;2.17;;;8.40;99.90;;;;;;4444282;32;20077;-70
2021/10/30 03:46:49;;;;;;;1.23;0.98;;;8.40;99.90;;;;;;4444122;32;20447;-69
2021/10/30 03:49:14;;;;;;;1.60;1.08;;;8.30;99.90;;;;;;4443301;32;20085;-69
2021/10/30 03:51:39;;;;;;;27.77;2.47;;;8.20;99.90;;;;;;4444068;32;20061;-69
2021/10/30 03:54:05;;;;;;;1.10;1.05;;;8.20;99.90;;;;;;4444357;32;20069;-69
2021/10/30 03:56:30;;;;;;;4.15;1.85;;;8.10;99.90;;;;;;4444457;32;20120;-68
2021/10/30 03:58:56;;;;;;;2.03;1.20;;;8.10;99.90;;;;;;4443789;32;20128;-68
2021/10/30 04:01:22;;;;;;;1.48;1.30;;;8.10;99.90;;;;;;4444230;32;20074;-69
2021/10/30 04:03:47;;;;;;;1.55;1.30;;;8.10;99.90;;;;;;4444152;32;20698;-69
2021/10/30 04:06:12;;;;;;;1.15;0.90;;;8.10;99.90;;;;;;4444048;32;20343;-69
2021/10/30 04:08:38;;;;;;;2.35;1.25;;;8.00;99.90;;;;;;4444185;32;20065;-68
2021/10/30 04:11:04;;;;;;;2.87;1.87;;;7.80;99.90;;;;;;4443727;32;20629;-69
2021/10/30 04:13:29;;;;;;;28.67;2.30;;;7.90;99.90;;;;;;4444042;32;20297;-68
2021/10/30 04:15:55;;;;;;;2.33;1.15;;;8.00;99.90;;;;;;4444192;32;20065;-68
2021/10/30 04:18:20;;;;;;;2.37;1.25;;;8.00;99.90;;;;;;4444160;32;20073;-69
2021/10/30 04:20:46;;;;;;;4.50;1.60;;;7.90;99.90;;;;;;4443870;32;20061;-68
2021/10/30 04:23:11;;;;;;;8.70;1.60;;;7.80;99.90;;;;;;4444242;32;20060;-69
2021/10/30 04:25:37;;;;;;;2.42;1.30;;;7.80;99.90;;;;;;4444067;32;20125;-68
2021/10/30 04:28:02;;;;;;;1.98;1.55;;;7.70;99.90;;;;;;4443320;32;20123;-69
2021/10/30 04:30:28;;;;;;;6.15;2.08;;;7.70;99.90;;;;;;4443829;32;20483;-69
2021/10/30 04:32:53;;;;;;;2.08;1.45;;;7.70;99.90;;;;;;4440484;32;105073;-68
2021/10/30 04:35:19;;;;;;;5.28;1.98;;;7.60;99.90;;;;;;4443759;32;20064;-68
2021/10/30 04:37:44;;;;;;;1.83;1.37;;;7.60;99.90;;;;;;4443746;32;20124;-69
2021/10/30 04:40:10;;;;;;;24.55;2.90;;;7.60;99.90;;;;;;4443831;32;20309;-69
2021/10/30 04:42:36;;;;;;;1.35;1.20;;;7.60;99.90;;;;;;4444652;32;20052;-68
2021/10/30 04:45:04;;;;;;;2.05;1.08;;;7.60;99.90;;;;;;4441185;32;20141;-68
2021/10/30 04:47:30;;;;;;;2.87;2.08;;;7.50;99.90;;;;;;4429577;32;20057;-68
2021/10/30 04:49:55;;;;;;;4.75;1.98;;;7.50;99.90;;;;;;4443625;32;20082;-69
2021/10/30 04:52:21;;;;;;;6.43;1.33;;;7.50;99.90;;;;;;4443849;32;20565;-70
2021/10/30 04:54:46;;;;;;;1.42;1.23;;;7.50;99.90;;;;;;4443948;32;20427;-69
2021/10/30 04:57:12;;;;;;;2.83;1.80;;;7.50;99.90;;;;;;4443693;32;20120;-69
2021/10/30 04:59:38;;;;;;;5.12;1.60;;;7.50;99.90;;;;;;4443104;32;20152;-69
2021/10/30 05:02:04;;;;;;;9.95;2.35;;;7.50;99.90;;;;;;4443245;32;20064;-69
2021/10/30 05:04:29;;;;;;;5.62;1.67;;;7.50;99.90;;;;;;4443582;32;20065;-69
2021/10/30 05:06:56;;;;;;;0.70;0.70;;;7.40;99.90;;;;;;4443833;32;20120;-70
2021/10/30 05:09:21;;;;;;;1.92;1.75;;;7.40;99.90;;;;;;4442866;32;20187;-69
2021/10/30 05:11:47;;;;;;;3.83;1.90;;;7.40;99.90;;;;;;4443249;32;20110;-69
2021/10/30 05:14:12;;;;;;;2.22;1.62;;;7.40;99.90;;;;;;4443366;32;20065;-69
2021/10/30 05:16:38;;;;;;;1.60;1.50;;;7.40;99.90;;;;;;4443776;32;20435;-69
2021/10/30 05:19:03;;;;;;;3.03;1.77;;;7.40;99.90;;;;;;4443333;32;20514;-69
2021/10/30 05:21:29;;;;;;;0.98;0.95;;;7.40;99.90;;;;;;4443555;32;20072;-69
2021/10/30 05:23:56;;;;;;;8.77;1.62;;;7.30;99.90;;;;;;4443698;32;20060;-69
2021/10/30 05:26:21;;;;;;;5.57;1.77;;;7.40;99.90;;;;;;4443872;32;20172;-69
2021/10/30 05:28:47;;;;;;;1.45;1.27;;;7.40;99.90;;;;;;4443012;32;20530;-68
2021/10/30 05:31:12;;;;;;;3.78;1.62;;;7.30;99.90;;;;;;4442981;32;20065;-68
2021/10/30 05:33:38;;;;;;;1.95;1.20;;;7.30;99.90;;;;;;4431745;32;20530;-68
2021/10/30 05:36:05;;;;;;;1.10;1.02;;;7.30;99.90;;;;;;4428060;32;20077;-69
2021/10/30 05:38:31;;;;;;;1.65;1.45;;;7.30;99.90;;;;;;4440155;32;20420;-69
2021/10/30 05:40:57;;;;;;;1.73;1.23;;;7.10;99.90;;;;;;4443527;32;20129;-68
2021/10/30 05:43:22;;;;;;;3.35;2.15;;;7.00;99.90;;;;;;4443076;32;20126;-69
2021/10/30 05:45:48;;;;;;;3.37;2.35;;;7.00;99.90;;;;;;4442920;32;20448;-68
2021/10/30 05:48:16;;;;;;;2.47;1.50;;;6.90;99.90;;;;;;4442763;32;20116;-69
2021/10/30 05:50:41;;;;;;;10.95;1.17;;;6.90;99.90;;;;;;4443808;32;20427;-68
2021/10/30 05:53:08;;;;;;;1.83;1.40;;;6.90;99.90;;;;;;4443250;32;20073;-69
2021/10/30 05:55:34;;;;;;;8.85;2.87;;;6.80;99.90;;;;;;4443286;32;20069;-68
2021/10/30 05:57:59;;;;;;;5.18;2.25;;;6.80;99.90;;;;;;4442671;32;20065;-68
2021/10/30 06:00:25;;;;;;;2.37;1.12;;;6.70;99.90;;;;;;4442562;32;20135;-69
2021/10/30 06:02:51;;;;;;;1.20;1.10;;;6.70;99.90;;;;;;4443164;32;20074;-68
2021/10/30 06:05:16;;;;;;;3.20;1.17;;;6.80;99.90;;;;;;4443105;32;20078;-69
2021/10/30 06:07:42;;;;;;;5.22;1.80;;;6.80;99.90;;;;;;4442759;32;20355;-69
2021/10/30 06:10:08;;;;;;;4.82;1.58;;;6.70;99.90;;;;;;4442619;32;20072;-69
2021/10/30 06:12:38;;;;;;;4.62;2.47;;;6.60;99.90;;;;;;4443568;32;20453;-68
2021/10/30 06:15:05;;;;;;;2.35;1.40;;;6.70;99.90;;;;;;4446022;32;20474;-69
2021/10/30 06:17:30;;;;;;;2.35;1.17;;;6.60;99.90;;;;;;4445176;32;20098;-69
2021/10/30 06:19:56;;;;;;;2.22;1.50;;;6.60;99.90;;;;;;4446350;32;20708;-68
2021/10/30 06:22:21;;;;;;;4.47;1.75;;;6.70;99.90;;;;;;4445546;32;20065;-69
2021/10/30 06:24:47;;;;;;;0.90;0.90;;;6.70;99.90;;;;;;4445698;32;20144;-69
2021/10/30 06:27:12;;;;;;;2.47;1.70;;;6.70;99.90;;;;;;4444923;32;20124;-68
2021/10/30 06:29:38;;;;;;;4.90;1.80;;;6.70;99.90;;;;;;4445192;32;20082;-69
2021/10/30 06:32:04;;;;;;;0.98;0.98;;;6.70;99.90;;;;;;4443638;32;20074;-69
2021/10/30 06:34:30;;;;;;;1.35;1.25;;;6.70;99.90;;;;;;4430148;32;20069;-69
2021/10/30 06:36:55;;;;;;;2.55;1.90;;;6.80;99.90;;;;;;4432655;32;20090;-68
2021/10/30 06:39:21;;;;;;;4.43;1.55;;;6.70;99.90;;;;;;4445194;32;20061;-68
2021/10/30 06:41:47;;;;;;;1.10;1.00;;;6.70;99.90;;;;;;4445378;32;20123;-68
2021/10/30 06:44:13;;;;;;;1.52;1.17;;;6.80;99.90;;;;;;4445101;32;20123;-68
2021/10/30 06:46:38;;;;;;;4.62;1.90;;;7.00;99.90;;;;;;4445334;32;20065;-68
2021/10/30 06:49:08;;;;;;;2.45;1.80;;;7.10;99.90;;;;;;4444712;32;20069;-69
2021/10/30 06:51:34;;;;;;;1.35;0.90;;;7.20;99.90;;;;;;4445028;32;20085;-69
2021/10/30 06:54:00;;;;;;;1.92;1.30;;;7.20;99.90;;;;;;4445021;32;20070;-69
2021/10/30 06:56:26;;;;;;;7.05;1.85;;;7.30;99.90;;;;;;4444891;32;20061;-68
2021/10/30 06:58:51;;;;;;;5.45;2.03;;;7.30;99.90;;;;;;4445599;32;20068;-69
2021/10/30 07:01:17;;;;;;;2.65;2.20;;;7.20;99.90;;;;;;4446537;32;20065;-69
2021/10/30 07:03:43;;;;;;;2.20;1.67;;;7.30;99.90;;;;;;4444746;32;20131;-69
2021/10/30 07:06:10;;;;;;;1.83;1.30;;;7.40;99.90;;;;;;4445006;32;20522;-69
2021/10/30 07:08:35;;;;;;;1.33;1.23;;;7.40;99.90;;;;;;4444287;32;20072;-69
2021/10/30 07:11:01;;;;;;;3.00;1.58;;;7.40;99.90;;;;;;4445020;32;20069;-68
2021/10/30 07:13:26;;;;;;;2.53;1.02;;;7.50;99.90;;;;;;4446350;32;20081;-69
2021/10/30 07:15:52;;;;;;;3.95;2.37;;;7.60;99.90;;;;;;4444587;32;20435;-68
2021/10/30 07:18:18;;;;;;;0.95;0.77;;;7.60;99.90;;;;;;4444578;32;20066;-69
2021/10/30 07:20:43;;;;;;;4.45;2.03;;;7.70;99.90;;;;;;4444890;32;20527;-68
2021/10/30 07:23:08;;;;;;;1.80;0.95;;;7.80;99.90;;;;;;4444879;32;20082;-68
2021/10/30 07:25:34;;;;;;;4.93;1.12;;;7.90;99.90;;;;;;4443993;32;20061;-68
2021/10/30 07:27:59;;;;;;;2.15;1.62;;;8.00;99.90;;;;;;4444171;32;20061;-68
2021/10/30 07:30:25;;;;;;;0.82;0.82;;;8.00;99.90;;;;;;4444384;32;20081;-69
2021/10/30 07:32:52;;;;;;;3.47;1.30;;;8.10;99.90;;;;;;4438094;32;20074;-69
2021/10/30 07:35:21;;;;;;;0.95;0.82;;;8.20;99.90;;;;;;4428980;32;20569;-69
2021/10/30 07:37:47;;;;;;;1.62;1.25;;;8.30;99.90;;;;;;4437277;32;20086;-69
2021/10/30 07:40:13;;;;;;;6.45;2.65;;;8.50;99.90;;;;;;4444709;32;20134;-69
2021/10/30 07:42:38;;;;;;;2.37;1.55;;;8.50;99.90;;;;;;4444443;32;20073;-69
2021/10/30 07:45:04;;;;;;;2.47;1.17;;;8.70;99.90;;;;;;4444581;32;20064;-68
2021/10/30 07:47:30;;;;;;;1.05;1.00;;;8.80;99.90;;;;;;4444845;32;20081;-68
2021/10/30 07:49:58;;;;;;;2.05;1.37;;;9.00;99.90;;;;;;4444513;32;20509;-68
2021/10/30 07:52:24;;;;;;;3.10;1.90;;;9.20;99.90;;;;;;4444547;32;20073;-69
2021/10/30 07:54:50;;;;;;;1.40;1.30;;;9.20;99.90;;;;;;4444135;32;20068;-69
2021/10/30 07:57:16;;;;;;;3.42;1.45;;;9.30;99.90;;;;;;4444259;32;20057;-69
2021/10/30 07:59:41;;;;;;;6.82;1.62;;;9.50;99.90;;;;;;4444114;32;20535;-69
2021/10/30 08:02:08;;;;;;;1.27;1.20;;;9.60;99.90;;;;;;4444070;32;20069;-69
2021/10/30 08:04:34;;;;;;;2.12;1.33;;;9.70;99.90;;;;;;4444559;32;20112;-69
2021/10/30 08:07:00;;;;;;;4.55;1.50;;;9.80;99.90;;;;;;4444153;32;20065;-69
2021/10/30 08:09:26;;;;;;;1.65;1.35;;;9.80;99.90;;;;;;4443832;32;20455;-69
2021/10/30 08:11:51;;;;;;;1.05;0.98;;;9.90;99.90;;;;;;4444520;32;20065;-69
2021/10/30 08:14:17;;;;;;;2.37;1.42;;;10.00;99.90;;;;;;4444421;32;20064;-69
2021/10/30 08:16:43;;;;;;;3.15;0.90;;;10.20;99.90;;;;;;4443850;32;20420;-69
2021/10/30 08:19:09;;;;;;;1.30;1.08;;;10.30;99.90;;;;;;4444226;32;20065;-69
2021/10/30 08:21:35;;;;;;;2.85;1.52;;;10.30;99.90;;;;;;4444254;32;20061;-69
2021/10/30 08:24:02;;;;;;;1.25;0.95;;;10.40;99.90;;;;;;4443943;32;20068;-69
2021/10/30 08:26:29;;;;;;;1.25;1.02;;;10.50;99.90;;;;;;4443857;32;20112;-69
2021/10/30 08:28:55;;;;;;;13.38;2.25;;;10.60;99.90;;;;;;4444146;32;20076;-69
2021/10/30 08:31:20;;;;;;;0.77;0.77;;;10.60;99.90;;;;;;4443997;32;20080;-69
2021/10/30 08:33:46;;;;;;;5.68;1.25;;;10.70;99.90;;;;;;4443716;32;20164;-69
2021/10/30 08:36:12;;;;;;;4.65;1.30;;;10.80;99.90;;;;;;4443451;32;20554;-69
2021/10/30 08:38:37;;;;;;;3.37;1.08;;;10.80;99.90;;;;;;4445002;32;20065;-69
2021/10/30 08:41:04;;;;;;;1.27;0.90;;;11.00;99.90;;;;;;4443506;32;20531;-69
2021/10/30 08:43:30;;;;;;;1.40;1.15;;;11.10;99.90;;;;;;4443986;32;20582;-70
2021/10/30 08:45:57;;;;;;;2.17;1.40;;;11.20;99.90;;;;;;4443575;32;20122;-69
2021/10/30 08:48:29;;;;;;;1.05;0.95;;;11.20;99.90;;;;;;4445020;32;20077;-69
2021/10/30 08:50:55;;;;;;;2.42;1.60;;;11.30;99.90;;;;;;4443914;32;20061;-70
2021/10/30 08:53:22;;;;;;;1.65;1.02;;;11.40;99.90;;;;;;4443676;32;20072;-69
2021/10/30 08:55:48;;;;;;;6.37;1.20;;;11.60;99.90;;;;;;4443443;32;20089;-70
2021/10/30 08:58:15;;;;;;;2.58;0.82;;;11.70;99.90;;;;;;4443037;32;20459;-70
2021/10/30 09:00:47;;;;;;;1.92;1.10;;;11.90;99.90;;;;;;4443279;32;20065;-70
2021/10/30 09:03:14;;;;;;;0.60;0.60;;;12.00;99.90;;;;;;4443873;32;20064;-69
2021/10/30 09:05:43;;;;;;;3.85;1.25;;;11.90;99.90;;;;;;4443191;32;20068;-70
2021/10/30 09:08:10;;;;;;;1.00;1.00;;;12.10;99.90;;;;;;4443787;32;20400;-70
2021/10/30 09:10:39;;;;;;;0.62;0.57;;;12.30;99.90;;;;;;4443698;32;20064;-70
2021/10/30 09:13:11;;;;;;;1.12;0.95;;;12.40;99.90;;;;;;4428815;32;20080;-70
2021/10/30 09:15:46;;;;;;;1.05;0.93;;;12.60;99.90;;;;;;4443363;32;20073;-70
2021/10/30 09:18:21;;;;;;;0.98;0.98;;;12.70;99.90;;;;;;4443271;32;20084;-70
2021/10/30 09:20:48;;;;;;;1.50;1.10;;;12.70;99.90;;;;;;4443231;32;20062;-70
2021/10/30 09:23:16;;;;;;;1.98;1.83;;;12.80;99.90;;;;;;4443753;32;20065;-70
2021/10/30 09:26:00;;;;;;;1.60;1.20;;;13.00;99.90;;;;;;4443482;32;20065;-69
2021/10/30 09:28:29;;;;;;;1.00;1.00;;;13.30;99.90;;;;;;4443082;32;20165;-70
2021/10/30 09:31:04;;;;;;;3.90;1.00;;;13.50;99.90;;;;;;4443486;32;20062;-70
2021/10/30 09:33:31;;;;;;;1.75;1.50;;;13.60;99.90;;;;;;4442880;32;20064;-70
2021/10/30 09:36:10;;;;;;;1.50;1.00;;;13.70;99.90;;;;;;4443573;32;20070;-70
2021/10/30 09:38:37;;;;;;;3.25;1.55;;;13.80;99.90;;;;;;4443564;32;20428;-70
2021/10/30 09:41:18;;;;;;;0.80;0.80;;;13.80;99.90;;;;;;4443150;32;20066;-70
2021/10/30 09:43:52;;;;;;;;;;;13.90;99.90;;;;;;4443438;32;20056;-70
2021/10/30 09:46:18;;;;;;;0.75;0.68;;;14.00;99.90;;;;;;4444486;32;20362;-70
2021/10/30 09:48:43;;;;;;;0.73;0.73;;;14.00;99.90;;;;;;4444665;32;20076;-70
2021/10/30 09:51:09;;;;;;;4.22;1.42;;;14.00;99.90;;;;;;4446733;32;20129;-70
2021/10/30 09:53:39;;;;;;;0.88;0.75;;;14.10;99.90;;;;;;4445823;32;20145;-70
2021/10/30 09:56:08;;;;;;;2.00;1.58;;;13.90;99.90;;;;;;4446087;32;20090;-70
2021/10/30 09:58:39;;;;;;;2.20;1.33;;;14.00;99.90;;;;;;4445654;32;20064;-70
2021/10/30 10:01:08;;;;;;;1.80;1.50;;;14.00;99.90;;;;;;4446004;32;20122;-70
2021/10/30 10:03:34;;;;;;;2.17;1.35;;;14.20;99.90;;;;;;4445250;32;20065;-70
2021/10/30 10:06:02;;;;;;;1.62;1.48;;;13.90;99.90;;;;;;4445116;32;20061;-70
2021/10/30 10:08:28;;;;;;;1.73;1.08;;;13.80;99.90;;;;;;4445901;32;20553;-70
2021/10/30 10:10:56;;;;;;;1.27;1.00;;;13.70;99.90;;;;;;4445659;32;20076;-70
2021/10/30 10:13:22;;;;;;;1.65;1.23;;;13.80;99.90;;;;;;4445739;32;20061;-70
2021/10/30 10:15:50;;;;;;;0.93;0.80;;;14.10;99.90;;;;;;4446043;32;20483;-70
2021/10/30 10:18:17;;;;;;;1.17;0.95;;;14.20;99.90;;;;;;4446217;32;20415;-70
2021/10/30 10:20:43;;;;;;;1.40;1.27;;;14.30;99.90;;;;;;4445964;32;20119;-70
2021/10/30 10:23:10;;;;;;;1.70;1.15;;;14.30;99.90;;;;;;4445228;32;20081;-70
2021/10/30 10:25:46;;;;;;;5.57;1.33;;;14.40;99.90;;;;;;4446026;32;20487;-70
2021/10/30 10:28:33;;;;;;;1.48;1.00;;;14.50;99.90;;;;;;4444861;32;20145;-70
2021/10/30 10:31:03;;;;;;;1.23;0.77;;;14.60;99.90;;;;;;4445484;32;20086;-70
2021/10/30 10:33:29;;;;;;;5.35;1.60;;;14.40;99.90;;;;;;4434689;32;20061;-70
2021/10/30 10:36:17;;;;;;;2.72;1.92;;;14.30;99.90;;;;;;4440309;32;20069;-70
2021/10/30 10:39:00;;;;;;;4.78;2.37;;;14.30;99.90;;;;;;4434046;32;20090;-70
2021/10/30 10:41:47;;;;;;;1.12;1.00;;;14.30;99.90;;;;;;4431428;32;20068;-70
2021/10/30 10:44:36;;;;;;;3.28;1.33;;;14.50;99.90;;;;;;4433263;32;20115;-70
2021/10/30 10:47:03;;;;;;;1.02;0.98;;;14.50;99.90;;;;;;4445028;32;20441;-68
2021/10/30 10:49:38;;;;;;;1.58;1.45;;;14.60;99.90;;;;;;4445045;32;20081;-68
2021/10/30 10:52:28;;;;;;;7.72;1.40;;;14.60;99.90;;;;;;4445602;32;20065;-69
2021/10/30 10:54:58;;;;;;;1.10;0.98;;;14.60;99.90;;;;;;4445613;32;20069;-68
2021/10/30 10:57:34;;;;;;;1.40;1.05;;;14.60;99.90;;;;;;4444863;32;20081;-68
2021/10/30 11:00:05;;;;;;;12.82;1.02;;;14.70;99.90;;;;;;4444612;32;20428;-68
2021/10/30 11:02:31;;;;;;;;;;;14.80;99.90;;;;;;4445410;32;20152;-68
2021/10/30 11:05:20;;;;;;;6.35;0.90;;;14.80;99.90;;;;;;4445067;32;20000;-68
2021/10/30 11:07:52;;;;;;;1.98;1.17;;;14.90;99.90;;;;;;4433602;32;20535;-68
2021/10/30 11:10:25;;;;;;;1.65;1.20;;;15.30;99.90;;;;;;4430818;32;20065;-69
2021/10/30 11:13:00;;;;;;;2.83;1.12;;;15.40;99.90;;;;;;4445227;32;20464;-69
2021/10/30 11:15:48;;;;;;;1.92;0.95;;;15.60;99.90;;;;;;4445076;32;20076;-69
2021/10/30 11:18:33;;;;;;;1.95;0.80;;;15.60;99.90;;;;;;4434962;32;20060;-71
2021/10/30 11:21:21;;;;;;;5.95;1.90;;;15.80;99.90;;;;;;4432407;32;20467;-69
2021/10/30 11:23:56;;;;;;;0.95;0.90;;;16.30;99.90;;;;;;4444782;32;20134;-68
2021/10/30 11:26:26;;;;;;;1.33;0.95;;;16.80;99.90;;;;;;4444747;32;20075;-69
2021/10/30 11:28:52;;;;;;;1.00;0.93;;;17.00;99.90;;;;;;4444138;32;20124;-69
2021/10/30 11:31:20;;;;;;;2.05;1.58;;;17.30;99.90;;;;;;4444661;32;20080;-69
2021/10/30 11:33:57;;;;;;;0.95;0.88;;;17.20;99.90;;;;;;4432238;32;20504;-69
2021/10/30 11:36:23;;;;;;;0.82;0.68;;;17.20;99.90;;;;;;4429661;32;20164;-70
2021/10/30 11:38:52;;;;;;;19.85;1.95;;;17.80;99.40;;;;;;4444535;32;20077;-69
2021/10/30 11:41:21;;;;;;;1.33;1.23;;;18.20;98.90;;;;;;4444644;32;20389;-69
2021/10/30 11:43:48;;;;;;;4.75;1.55;;;18.40;98.10;;;;;;4444321;32;20089;-70
2021/10/30 11:46:17;;;;;;;1.12;1.02;;;18.20;97.60;;;;;;4445024;32;20057;-68
2021/10/30 11:48:56;;;;;;;2.37;1.55;;;18.00;98.10;;;;;;4444667;32;20077;-70
2021/10/30 11:51:37;;;;;;;0.60;0.60;;;17.80;98.00;;;;;;4444536;32;20073;-71
2021/10/30 11:54:04;;;;;;;5.07;1.27;;;18.10;97.70;;;;;;4444708;32;20074;-70
2021/10/30 11:56:31;;;;;;;1.00;1.00;;;18.20;97.40;;;;;;4445146;32;20134;-70
2021/10/30 11:58:59;;;;;;;1.70;1.12;;;18.00;98.00;;;;;;4443855;32;20089;-70
2021/10/30 12:01:29;;;;;;;6.10;1.25;;;18.20;97.60;;;;;;4445571;32;20108;-70
2021/10/30 12:04:07;;;;;;;2.90;1.00;;;18.40;97.50;;;;;;4445842;32;20069;-70
2021/10/30 12:06:36;;;;;;;3.67;1.33;;;18.30;97.30;;;;;;4444964;32;20073;-70
2021/10/30 12:09:02;;;;;;;1.55;1.05;;;18.40;97.20;;;;;;4444705;32;20052;-70
2021/10/30 12:11:29;;;;;;;1.65;0.90;;;18.30;97.50;;;;;;4443711;32;20085;-70
2021/10/30 12:13:58;;;;;;;0.88;0.88;;;18.70;96.50;;;;;;4444508;32;20207;-70
2021/10/30 12:16:25;;;;;;;1.17;1.10;;;19.10;96.20;;;;;;4444150;32;20135;-70
2021/10/30 12:18:53;;;;;;;4.93;2.10;;;19.00;96.00;;;;;;4443572;32;20122;-70
2021/10/30 12:21:19;;;;;;;1.67;1.10;;;19.20;95.90;;;;;;4445175;32;20109;-69
2021/10/30 12:23:57;;;;;;;1.90;0.90;;;19.20;95.60;;;;;;4444095;32;20049;-71
2021/10/30 12:26:25;;;;;;;1.83;0.98;;;19.30;95.70;;;;;;4443959;32;20069;-70
2021/10/30 12:28:51;;;;;;;0.98;0.88;;;19.20;96.40;;;;;;4444672;32;20060;-71
2021/10/30 12:31:30;;;;;;;2.25;1.17;;;19.30;95.50;;;;;;4443425;32;20085;-69
2021/10/30 12:33:58;;;;;;;2.40;1.05;;;19.10;95.40;;;;;;4430555;32;20472;-71
2021/10/30 12:36:26;;;;;;;1.10;1.00;;;19.20;95.90;;;;;;4429824;32;20589;-70
2021/10/30 12:38:57;;;;;;;2.33;1.33;;;19.40;95.30;;;;;;4444159;32;20060;-70
2021/10/30 12:41:29;;;;;;;1.10;0.95;;;19.40;95.00;;;;;;4444789;32;20064;-70
2021/10/30 12:43:58;;;;;;;0.77;0.77;;;19.30;95.20;;;;;;4444194;32;20057;-71
2021/10/30 12:46:23;;;;;;;1.02;0.95;;;19.00;94.80;;;;;;4444409;32;20082;-70
2021/10/30 12:48:49;;;;;;;3.40;1.30;;;18.70;95.50;;;;;;4443911;32;20505;-70
2021/10/30 12:51:18;;;;;;;1.42;1.00;;;18.50;95.20;;;;;;4443321;32;20423;-69
2021/10/30 12:53:47;;;;;;;0.98;0.90;;;18.20;95.40;;;;;;4443872;32;20134;-71